sensor_id;sensor_type;location;lat;lon;timestamp;pressure;altitude;pressure_sealevel;temperature;humidity
64872;BME280;51351;51.450;6.614;2023-09-07T00:00:15;101786.63;;;19.94;71.38
64872;BME280;51351;51.450;6.614;2023-09-07T00:02:41;101780.66;;;19.92;71.71
64872;BME280;51351;51.450;6.614;2023-09-07T00:05:07;101781.00;;;19.89;71.99
64872;BME280;51351;51.450;6.614;2023-09-07T00:07:33;101780.72;;;19.84;71.83
64872;BME280;51351;51.450;6.614;2023-09-07T00:09:58;101785.69;;;19.79;72.23
64872;BME280;51351;51.450;6.614;2023-09-07T00:12:25;101781.25;;;19.72;73.55
64872;BME280;51351;51.450;6.614;2023-09-07T00:14:50;101780.59;;;19.70;72.07
64872;BME280;51351;51.450;6.614;2023-09-07T00:17:15;101774.78;;;19.66;72.19
64872;BME280;51351;51.450;6.614;2023-09-07T00:19:41;101776.97;;;19.63;72.32
64872;BME280;51351;51.450;6.614;2023-09-07T00:22:06;101774.00;;;19.58;72.77
64872;BME280;51351;51.450;6.614;2023-09-07T00:24:32;101779.63;;;19.55;72.74
64872;BME280;51351;51.450;6.614;2023-09-07T00:26:58;101780.81;;;19.52;72.99
64872;BME280;51351;51.450;6.614;2023-09-07T00:29:23;101788.75;;;19.52;73.17
64872;BME280;51351;51.450;6.614;2023-09-07T00:31:49;101786.44;;;19.49;72.97
64872;BME280;51351;51.450;6.614;2023-09-07T00:34:14;101783.94;;;19.48;73.29
64872;BME280;51351;51.450;6.614;2023-09-07T00:36:40;101787.78;;;19.45;73.32
64872;BME280;51351;51.450;6.614;2023-09-07T00:39:05;101782.81;;;19.42;73.26
64872;BME280;51351;51.450;6.614;2023-09-07T00:41:31;101782.16;;;19.40;73.58
64872;BME280;51351;51.450;6.614;2023-09-07T00:43:56;101774.56;;;19.37;73.62
64872;BME280;51351;51.450;6.614;2023-09-07T00:46:22;101780.19;;;19.34;73.62
64872;BME280;51351;51.450;6.614;2023-09-07T00:48:48;101779.69;;;19.31;73.67
64872;BME280;51351;51.450;6.614;2023-09-07T00:51:14;101779.22;;;19.27;73.92
64872;BME280;51351;51.450;6.614;2023-09-07T00:53:40;101784.69;;;19.26;73.92
64872;BME280;51351;51.450;6.614;2023-09-07T00:56:07;101776.88;;;19.24;73.97
64872;BME280;51351;51.450;6.614;2023-09-07T00:58:33;101775.34;;;19.22;73.70
64872;BME280;51351;51.450;6.614;2023-09-07T01:00:59;101778.19;;;19.20;73.84
64872;BME280;51351;51.450;6.614;2023-09-07T01:03:25;101776.84;;;19.16;74.07
64872;BME280;51351;51.450;6.614;2023-09-07T01:06:04;101773.06;;;19.11;74.56
64872;BME280;51351;51.450;6.614;2023-09-07T01:08:36;101771.75;;;19.07;74.31
64872;BME280;51351;51.450;6.614;2023-09-07T01:11:17;101767.09;;;19.00;74.96
64872;BME280;51351;51.450;6.614;2023-09-07T01:13:46;101765.47;;;18.99;74.37
64872;BME280;51351;51.450;6.614;2023-09-07T01:16:13;101769.28;;;18.97;74.19
64872;BME280;51351;51.450;6.614;2023-09-07T01:18:39;101768.59;;;18.95;74.57
64872;BME280;51351;51.450;6.614;2023-09-07T01:21:08;101765.44;;;18.91;74.46
64872;BME280;51351;51.450;6.614;2023-09-07T01:23:35;101763.16;;;18.88;74.62
64872;BME280;51351;51.450;6.614;2023-09-07T01:26:03;101763.47;;;18.85;74.79
64872;BME280;51351;51.450;6.614;2023-09-07T01:28:29;101765.28;;;18.85;74.63
64872;BME280;51351;51.450;6.614;2023-09-07T01:30:55;101754.19;;;18.81;74.96
64872;BME280;51351;51.450;6.614;2023-09-07T01:33:20;101753.88;;;18.76;74.54
64872;BME280;51351;51.450;6.614;2023-09-07T01:35:46;101761.97;;;18.75;75.04
64872;BME280;51351;51.450;6.614;2023-09-07T01:38:11;101761.63;;;18.70;75.04
64872;BME280;51351;51.450;6.614;2023-09-07T01:40:37;101754.00;;;18.67;75.31
64872;BME280;51351;51.450;6.614;2023-09-07T01:43:03;101755.00;;;18.66;75.11
64872;BME280;51351;51.450;6.614;2023-09-07T01:45:28;101756.19;;;18.63;75.35
64872;BME280;51351;51.450;6.614;2023-09-07T01:47:54;101748.41;;;18.62;75.19
64872;BME280;51351;51.450;6.614;2023-09-07T01:50:19;101754.88;;;18.59;75.50
64872;BME280;51351;51.450;6.614;2023-09-07T01:52:49;101756.81;;;18.57;75.52
64872;BME280;51351;51.450;6.614;2023-09-07T01:55:14;101756.19;;;18.55;75.56
64872;BME280;51351;51.450;6.614;2023-09-07T01:57:40;101753.88;;;18.52;75.48
64872;BME280;51351;51.450;6.614;2023-09-07T02:00:06;101748.22;;;18.47;75.55
64872;BME280;51351;51.450;6.614;2023-09-07T02:02:38;101739.13;;;18.42;75.41
64872;BME280;51351;51.450;6.614;2023-09-07T02:05:04;101738.75;;;18.37;75.92
64872;BME280;51351;51.450;6.614;2023-09-07T02:07:30;101749.66;;;18.34;75.88
64872;BME280;51351;51.450;6.614;2023-09-07T02:09:55;101747.34;;;18.31;75.71
64872;BME280;51351;51.450;6.614;2023-09-07T02:12:21;101747.66;;;18.28;75.84
64872;BME280;51351;51.450;6.614;2023-09-07T02:14:46;101746.16;;;18.25;75.76
64872;BME280;51351;51.450;6.614;2023-09-07T02:17:12;101743.66;;;18.24;75.97
64872;BME280;51351;51.450;6.614;2023-09-07T02:19:46;101747.47;;;18.21;76.33
64872;BME280;51351;51.450;6.614;2023-09-07T02:22:11;101740.69;;;18.19;76.39
64872;BME280;51351;51.450;6.614;2023-09-07T02:24:37;101740.19;;;18.15;76.19
64872;BME280;51351;51.450;6.614;2023-09-07T02:27:03;101749.25;;;18.13;76.31
64872;BME280;51351;51.450;6.614;2023-09-07T02:29:28;101749.59;;;18.10;76.37
64872;BME280;51351;51.450;6.614;2023-09-07T02:31:54;101741.00;;;18.08;76.52
64872;BME280;51351;51.450;6.614;2023-09-07T02:34:21;101739.31;;;18.07;76.31
64872;BME280;51351;51.450;6.614;2023-09-07T02:36:46;101743.97;;;18.05;76.36
64872;BME280;51351;51.450;6.614;2023-09-07T02:39:12;101740.47;;;18.04;76.63
64872;BME280;51351;51.450;6.614;2023-09-07T02:41:39;101744.28;;;18.02;76.62
64872;BME280;51351;51.450;6.614;2023-09-07T02:44:05;101745.28;;;18.01;76.66
64872;BME280;51351;51.450;6.614;2023-09-07T02:46:30;101737.50;;;17.99;76.58
64872;BME280;51351;51.450;6.614;2023-09-07T02:48:59;101742.81;;;17.99;76.57
64872;BME280;51351;51.450;6.614;2023-09-07T02:51:26;101741.13;;;17.98;76.68
64872;BME280;51351;51.450;6.614;2023-09-07T02:53:53;101738.94;;;17.94;76.23
64872;BME280;51351;51.450;6.614;2023-09-07T02:56:19;101740.09;;;17.91;76.69
64872;BME280;51351;51.450;6.614;2023-09-07T02:58:44;101740.59;;;17.87;76.89
64872;BME280;51351;51.450;6.614;2023-09-07T03:01:11;101733.28;;;17.81;77.89
64872;BME280;51351;51.450;6.614;2023-09-07T03:03:37;101736.75;;;17.81;76.77
64872;BME280;51351;51.450;6.614;2023-09-07T03:06:10;101741.41;;;17.79;77.21
64872;BME280;51351;51.450;6.614;2023-09-07T03:08:37;101741.72;;;17.76;76.72
64872;BME280;51351;51.450;6.614;2023-09-07T03:11:04;101744.50;;;17.75;76.95
64872;BME280;51351;51.450;6.614;2023-09-07T03:13:31;101739.22;;;17.75;76.82
64872;BME280;51351;51.450;6.614;2023-09-07T03:15:56;101734.09;;;17.73;76.79
64872;BME280;51351;51.450;6.614;2023-09-07T03:18:22;101730.09;;;17.69;76.89
64872;BME280;51351;51.450;6.614;2023-09-07T03:20:49;101738.53;;;17.65;76.75
64872;BME280;51351;51.450;6.614;2023-09-07T03:23:15;101743.28;;;17.61;77.08
64872;BME280;51351;51.450;6.614;2023-09-07T03:25:40;101742.59;;;17.59;77.01
64872;BME280;51351;51.450;6.614;2023-09-07T03:28:06;101744.91;;;17.54;77.10
64872;BME280;51351;51.450;6.614;2023-09-07T03:30:34;101744.38;;;17.51;77.25
64872;BME280;51351;51.450;6.614;2023-09-07T03:32:59;101743.56;;;17.50;77.36
64872;BME280;51351;51.450;6.614;2023-09-07T03:35:25;101739.09;;;17.51;77.46
64872;BME280;51351;51.450;6.614;2023-09-07T03:37:51;101741.56;;;17.52;77.33
64872;BME280;51351;51.450;6.614;2023-09-07T03:40:16;101741.72;;;17.51;77.41
64872;BME280;51351;51.450;6.614;2023-09-07T03:42:43;101741.56;;;17.52;77.35
64872;BME280;51351;51.450;6.614;2023-09-07T03:45:11;101745.06;;;17.53;77.54
64872;BME280;51351;51.450;6.614;2023-09-07T03:47:37;101746.22;;;17.50;77.53
64872;BME280;51351;51.450;6.614;2023-09-07T03:50:04;101743.03;;;17.47;77.51
64872;BME280;51351;51.450;6.614;2023-09-07T03:52:30;101749.97;;;17.48;77.61
64872;BME280;51351;51.450;6.614;2023-09-07T03:54:59;101741.41;;;17.46;77.40
64872;BME280;51351;51.450;6.614;2023-09-07T03:57:26;101751.28;;;17.44;77.64
64872;BME280;51351;51.450;6.614;2023-09-07T03:59:53;101749.63;;;17.43;77.53
64872;BME280;51351;51.450;6.614;2023-09-07T04:02:21;101748.09;;;17.40;77.53
64872;BME280;51351;51.450;6.614;2023-09-07T04:04:51;101748.25;;;17.39;77.86
64872;BME280;51351;51.450;6.614;2023-09-07T04:07:17;101752.84;;;17.37;77.67
64872;BME280;51351;51.450;6.614;2023-09-07T04:09:43;101750.53;;;17.34;77.59
64872;BME280;51351;51.450;6.614;2023-09-07T04:12:09;101749.19;;;17.30;78.26
64872;BME280;51351;51.450;6.614;2023-09-07T04:14:34;101751.81;;;17.30;77.74
64872;BME280;51351;51.450;6.614;2023-09-07T04:17:00;101753.78;;;17.28;77.71
64872;BME280;51351;51.450;6.614;2023-09-07T04:19:26;101750.47;;;17.26;77.83
64872;BME280;51351;51.450;6.614;2023-09-07T04:21:52;101753.44;;;17.23;77.79
64872;BME280;51351;51.450;6.614;2023-09-07T04:24:18;101745.81;;;17.20;77.95
64872;BME280;51351;51.450;6.614;2023-09-07T04:26:43;101753.91;;;17.18;77.96
64872;BME280;51351;51.450;6.614;2023-09-07T04:29:09;101742.66;;;17.16;77.91
64872;BME280;51351;51.450;6.614;2023-09-07T04:31:36;101741.84;;;17.16;77.90
64872;BME280;51351;51.450;6.614;2023-09-07T04:34:01;101743.63;;;17.15;78.24
64872;BME280;51351;51.450;6.614;2023-09-07T04:36:28;101745.63;;;17.13;77.92
64872;BME280;51351;51.450;6.614;2023-09-07T04:38:54;101743.13;;;17.12;77.86
64872;BME280;51351;51.450;6.614;2023-09-07T04:41:20;101746.75;;;17.11;77.80
64872;BME280;51351;51.450;6.614;2023-09-07T04:43:46;101750.91;;;17.13;78.28
64872;BME280;51351;51.450;6.614;2023-09-07T04:46:13;101746.97;;;17.17;78.05
64872;BME280;51351;51.450;6.614;2023-09-07T04:48:39;101748.63;;;17.18;77.85
64872;BME280;51351;51.450;6.614;2023-09-07T04:51:10;101748.47;;;17.20;77.66
64872;BME280;51351;51.450;6.614;2023-09-07T04:53:38;101747.31;;;17.22;77.71
64872;BME280;51351;51.450;6.614;2023-09-07T04:56:06;101742.41;;;17.27;77.94
64872;BME280;51351;51.450;6.614;2023-09-07T04:58:32;101754.31;;;17.31;77.53
64872;BME280;51351;51.450;6.614;2023-09-07T05:01:04;101743.28;;;17.36;77.59
64872;BME280;51351;51.450;6.614;2023-09-07T05:03:30;101746.28;;;17.41;77.29
64872;BME280;51351;51.450;6.614;2023-09-07T05:05:56;101749.47;;;17.44;77.63
64872;BME280;51351;51.450;6.614;2023-09-07T05:08:22;101751.81;;;17.47;77.21
64872;BME280;51351;51.450;6.614;2023-09-07T05:10:57;101757.91;;;17.48;77.16
64872;BME280;51351;51.450;6.614;2023-09-07T05:13:24;101760.38;;;17.49;77.07
64872;BME280;51351;51.450;6.614;2023-09-07T05:15:51;101754.13;;;17.50;77.30
64872;BME280;51351;51.450;6.614;2023-09-07T05:18:18;101755.94;;;17.50;77.12
64872;BME280;51351;51.450;6.614;2023-09-07T05:20:44;101755.78;;;17.51;77.05
64872;BME280;51351;51.450;6.614;2023-09-07T05:23:13;101759.56;;;17.49;77.07
64872;BME280;51351;51.450;6.614;2023-09-07T05:25:51;101767.19;;;17.52;77.08
64872;BME280;51351;51.450;6.614;2023-09-07T05:28:22;101758.59;;;17.58;76.89
64872;BME280;51351;51.450;6.614;2023-09-07T05:30:49;101771.19;;;17.64;76.90
64872;BME280;51351;51.450;6.614;2023-09-07T05:33:16;101769.09;;;17.67;76.68
64872;BME280;51351;51.450;6.614;2023-09-07T05:35:42;101770.63;;;17.78;76.49
64872;BME280;51351;51.450;6.614;2023-09-07T05:38:09;101768.84;;;17.86;76.23
64872;BME280;51351;51.450;6.614;2023-09-07T05:40:42;101775.81;;;17.95;75.82
64872;BME280;51351;51.450;6.614;2023-09-07T05:43:10;101780.16;;;18.04;75.86
64872;BME280;51351;51.450;6.614;2023-09-07T05:45:38;101785.44;;;18.12;74.98
64872;BME280;51351;51.450;6.614;2023-09-07T05:48:06;101780.88;;;18.22;74.78
64872;BME280;51351;51.450;6.614;2023-09-07T05:50:35;101786.19;;;18.30;74.36
64872;BME280;51351;51.450;6.614;2023-09-07T05:53:01;101782.63;;;18.39;74.36
64872;BME280;51351;51.450;6.614;2023-09-07T05:55:27;101782.47;;;18.49;74.12
64872;BME280;51351;51.450;6.614;2023-09-07T05:57:55;101780.47;;;18.59;73.39
64872;BME280;51351;51.450;6.614;2023-09-07T06:00:21;101787.47;;;18.68;73.26
64872;BME280;51351;51.450;6.614;2023-09-07T06:02:47;101787.13;;;18.79;72.63
64872;BME280;51351;51.450;6.614;2023-09-07T06:05:13;101792.91;;;18.90;72.40
64872;BME280;51351;51.450;6.614;2023-09-07T06:07:39;101796.06;;;19.02;72.11
64872;BME280;51351;51.450;6.614;2023-09-07T06:10:05;101799.22;;;19.14;71.99
64872;BME280;51351;51.450;6.614;2023-09-07T06:12:32;101793.56;;;19.25;71.65
64872;BME280;51351;51.450;6.614;2023-09-07T06:14:59;101797.56;;;19.37;71.38
64872;BME280;51351;51.450;6.614;2023-09-07T06:17:26;101800.69;;;19.48;71.18
64872;BME280;51351;51.450;6.614;2023-09-07T06:19:52;101802.97;;;19.59;71.13
64872;BME280;51351;51.450;6.614;2023-09-07T06:22:18;101796.66;;;19.68;71.11
64872;BME280;51351;51.450;6.614;2023-09-07T06:24:44;101804.91;;;19.81;71.04
64872;BME280;51351;51.450;6.614;2023-09-07T06:27:09;101805.03;;;19.96;69.98
64872;BME280;51351;51.450;6.614;2023-09-07T06:29:35;101805.16;;;20.10;69.79
64872;BME280;51351;51.450;6.614;2023-09-07T06:32:00;101808.91;;;20.24;69.11
64872;BME280;51351;51.450;6.614;2023-09-07T06:34:26;101803.06;;;20.36;68.43
64872;BME280;51351;51.450;6.614;2023-09-07T06:36:51;101804.59;;;20.53;67.90
64872;BME280;51351;51.450;6.614;2023-09-07T06:39:19;101805.31;;;20.70;66.87
64872;BME280;51351;51.450;6.614;2023-09-07T06:41:46;101802.47;;;21.02;65.62
64872;BME280;51351;51.450;6.614;2023-09-07T06:44:12;101800.16;;;21.36;64.72
64872;BME280;51351;51.450;6.614;2023-09-07T06:46:38;101806.41;;;21.58;62.72
64872;BME280;51351;51.450;6.614;2023-09-07T06:49:03;101809.94;;;21.73;62.15
64872;BME280;51351;51.450;6.614;2023-09-07T06:51:30;101802.16;;;21.86;61.50
64872;BME280;51351;51.450;6.614;2023-09-07T06:53:56;101803.13;;;21.85;60.47
64872;BME280;51351;51.450;6.614;2023-09-07T06:56:22;101810.19;;;21.92;60.71
64872;BME280;51351;51.450;6.614;2023-09-07T06:58:48;101811.75;;;22.01;60.29
64872;BME280;51351;51.450;6.614;2023-09-07T07:01:13;101807.34;;;22.08;59.15
64872;BME280;51351;51.450;6.614;2023-09-07T07:03:39;101815.44;;;22.15;59.22
64872;BME280;51351;51.450;6.614;2023-09-07T07:06:05;101814.03;;;22.19;57.92
64872;BME280;51351;51.450;6.614;2023-09-07T07:08:30;101819.16;;;22.35;58.80
64872;BME280;51351;51.450;6.614;2023-09-07T07:10:56;101818.94;;;22.51;58.13
64872;BME280;51351;51.450;6.614;2023-09-07T07:13:21;101818.69;;;22.67;57.54
64872;BME280;51351;51.450;6.614;2023-09-07T07:15:47;101818.47;;;22.83;57.17
64872;BME280;51351;51.450;6.614;2023-09-07T07:18:12;101823.78;;;23.04;57.14
64872;BME280;51351;51.450;6.614;2023-09-07T07:20:38;101825.25;;;23.27;56.59
64872;BME280;51351;51.450;6.614;2023-09-07T07:23:04;101821.84;;;23.40;55.56
64872;BME280;51351;51.450;6.614;2023-09-07T07:25:34;101814.34;;;23.50;54.88
64872;BME280;51351;51.450;6.614;2023-09-07T07:28:00;101821.22;;;23.66;54.93
64872;BME280;51351;51.450;6.614;2023-09-07T07:30:27;101817.03;;;23.84;54.02
64872;BME280;51351;51.450;6.614;2023-09-07T07:32:55;101806.19;;;23.92;54.00
64872;BME280;51351;51.450;6.614;2023-09-07T07:35:20;101814.31;;;24.12;53.64
64872;BME280;51351;51.450;6.614;2023-09-07T07:37:46;101809.44;;;24.35;53.10
64872;BME280;51351;51.450;6.614;2023-09-07T07:40:11;101816.09;;;24.52;52.86
64872;BME280;51351;51.450;6.614;2023-09-07T07:42:37;101817.19;;;24.64;52.57
64872;BME280;51351;51.450;6.614;2023-09-07T07:45:02;101820.28;;;24.74;50.99
64872;BME280;51351;51.450;6.614;2023-09-07T07:47:28;101817.19;;;24.77;50.59
64872;BME280;51351;51.450;6.614;2023-09-07T07:49:54;101818.66;;;24.73;49.70
64872;BME280;51351;51.450;6.614;2023-09-07T07:52:19;101828.31;;;24.87;50.76
64872;BME280;51351;51.450;6.614;2023-09-07T07:54:45;101828.94;;;24.82;49.21
64872;BME280;51351;51.450;6.614;2023-09-07T07:57:10;101830.81;;;25.01;50.33
64872;BME280;51351;51.450;6.614;2023-09-07T07:59:37;101826.31;;;25.15;49.21
64872;BME280;51351;51.450;6.614;2023-09-07T08:02:03;101815.19;;;25.18;49.17
64872;BME280;51351;51.450;6.614;2023-09-07T08:04:28;101816.44;;;25.35;48.40
64872;BME280;51351;51.450;6.614;2023-09-07T08:06:54;101820.31;;;25.58;48.59
64872;BME280;51351;51.450;6.614;2023-09-07T08:09:23;101821.16;;;25.52;47.49
64872;BME280;51351;51.450;6.614;2023-09-07T08:11:49;101816.22;;;25.49;47.44
64872;BME280;51351;51.450;6.614;2023-09-07T08:14:15;101819.69;;;25.63;47.81
64872;BME280;51351;51.450;6.614;2023-09-07T08:16:40;101811.47;;;25.71;46.59
64872;BME280;51351;51.450;6.614;2023-09-07T08:19:06;101811.16;;;26.05;47.62
64872;BME280;51351;51.450;6.614;2023-09-07T08:21:32;101810.00;;;26.32;47.03
64872;BME280;51351;51.450;6.614;2023-09-07T08:23:59;101797.88;;;26.67;47.17
64872;BME280;51351;51.450;6.614;2023-09-07T08:26:25;101805.78;;;26.87;46.67
64872;BME280;51351;51.450;6.614;2023-09-07T08:28:51;101801.38;;;26.99;46.31
64872;BME280;51351;51.450;6.614;2023-09-07T08:31:16;101796.47;;;27.14;45.60
64872;BME280;51351;51.450;6.614;2023-09-07T08:33:47;101794.41;;;27.16;45.34
64872;BME280;51351;51.450;6.614;2023-09-07T08:36:16;101793.34;;;27.23;44.41
64872;BME280;51351;51.450;6.614;2023-09-07T08:38:42;101792.16;;;27.37;44.34
64872;BME280;51351;51.450;6.614;2023-09-07T08:41:08;101785.72;;;27.63;44.39
64872;BME280;51351;51.450;6.614;2023-09-07T08:43:35;101792.34;;;27.60;43.11
64872;BME280;51351;51.450;6.614;2023-09-07T08:46:18;101788.09;;;27.53;41.42
64872;BME280;51351;51.450;6.614;2023-09-07T08:48:46;101787.88;;;27.54;42.04
64872;BME280;51351;51.450;6.614;2023-09-07T08:51:12;101786.50;;;27.45;41.80
64872;BME280;51351;51.450;6.614;2023-09-07T08:53:40;101786.69;;;27.50;41.62
64872;BME280;51351;51.450;6.614;2023-09-07T08:56:07;101782.28;;;27.56;41.97
64872;BME280;51351;51.450;6.614;2023-09-07T08:58:36;101785.13;;;27.61;41.67
64872;BME280;51351;51.450;6.614;2023-09-07T09:01:01;101783.91;;;27.57;41.51
64872;BME280;51351;51.450;6.614;2023-09-07T09:03:28;101784.00;;;27.68;42.06
64872;BME280;51351;51.450;6.614;2023-09-07T09:05:56;101789.00;;;27.83;41.94
64872;BME280;51351;51.450;6.614;2023-09-07T09:08:21;101785.00;;;27.92;41.74
64872;BME280;51351;51.450;6.614;2023-09-07T09:11:09;101790.25;;;27.80;41.69
64872;BME280;51351;51.450;6.614;2023-09-07T09:13:36;101781.03;;;27.95;41.47
64872;BME280;51351;51.450;6.614;2023-09-07T09:16:01;101789.31;;;28.11;41.62
64872;BME280;51351;51.450;6.614;2023-09-07T09:18:28;101784.72;;;28.12;40.92
64872;BME280;51351;51.450;6.614;2023-09-07T09:20:55;101786.75;;;28.16;40.98
64872;BME280;51351;51.450;6.614;2023-09-07T09:23:21;101791.72;;;28.31;40.86
64872;BME280;51351;51.450;6.614;2023-09-07T09:25:49;101789.72;;;28.44;40.11
64872;BME280;51351;51.450;6.614;2023-09-07T09:28:15;101789.16;;;28.54;40.48
64872;BME280;51351;51.450;6.614;2023-09-07T09:30:41;101789.72;;;28.44;39.09
64872;BME280;51351;51.450;6.614;2023-09-07T09:33:09;101782.72;;;28.55;39.85
64872;BME280;51351;51.450;6.614;2023-09-07T09:35:37;101776.91;;;28.69;39.13
64872;BME280;51351;51.450;6.614;2023-09-07T09:38:03;101770.97;;;28.67;38.58
64872;BME280;51351;51.450;6.614;2023-09-07T09:40:33;101781.53;;;28.80;38.60
64872;BME280;51351;51.450;6.614;2023-09-07T09:43:03;101781.63;;;28.85;38.41
64872;BME280;51351;51.450;6.614;2023-09-07T09:45:29;101773.69;;;28.79;37.94
64872;BME280;51351;51.450;6.614;2023-09-07T09:47:55;101768.88;;;28.92;38.23
64872;BME280;51351;51.450;6.614;2023-09-07T09:50:26;101772.03;;;29.01;37.53
64872;BME280;51351;51.450;6.614;2023-09-07T09:52:53;101771.75;;;29.09;38.19
64872;BME280;51351;51.450;6.614;2023-09-07T09:55:19;101768.38;;;29.13;37.98
64872;BME280;51351;51.450;6.614;2023-09-07T09:57:44;101766.69;;;29.35;38.31
64872;BME280;51351;51.450;6.614;2023-09-07T10:00:11;101763.69;;;29.32;37.10
64872;BME280;51351;51.450;6.614;2023-09-07T10:02:54;101762.16;;;29.24;37.67
64872;BME280;51351;51.450;6.614;2023-09-07T10:05:21;101757.22;;;29.33;37.77
64872;BME280;51351;51.450;6.614;2023-09-07T10:07:49;101750.44;;;29.65;37.78
64872;BME280;51351;51.450;6.614;2023-09-07T10:10:18;101753.22;;;29.58;36.88
64872;BME280;51351;51.450;6.614;2023-09-07T10:12:45;101754.63;;;29.38;37.15
64872;BME280;51351;51.450;6.614;2023-09-07T10:17:46;101739.97;;;29.68;37.37
64872;BME280;51351;51.450;6.614;2023-09-07T10:20:16;101742.28;;;29.88;37.45
64872;BME280;51351;51.450;6.614;2023-09-07T10:22:42;101736.69;;;30.06;37.17
64872;BME280;51351;51.450;6.614;2023-09-07T10:25:18;101726.31;;;30.26;36.78
64872;BME280;51351;51.450;6.614;2023-09-07T10:27:44;101725.34;;;30.32;37.05
64872;BME280;51351;51.450;6.614;2023-09-07T10:30:11;101725.75;;;30.24;36.88
64872;BME280;51351;51.450;6.614;2023-09-07T10:32:44;101731.56;;;30.33;35.95
64872;BME280;51351;51.450;6.614;2023-09-07T10:35:14;101727.56;;;30.52;36.92
64872;BME280;51351;51.450;6.614;2023-09-07T10:37:40;101722.91;;;30.47;35.84
64872;BME280;51351;51.450;6.614;2023-09-07T10:40:07;101722.09;;;30.63;36.46
64872;BME280;51351;51.450;6.614;2023-09-07T10:42:37;101718.63;;;30.79;36.28
64872;BME280;51351;51.450;6.614;2023-09-07T10:45:10;101713.56;;;30.83;35.45
64872;BME280;51351;51.450;6.614;2023-09-07T10:47:40;101713.72;;;30.76;34.36
64872;BME280;51351;51.450;6.614;2023-09-07T10:50:06;101720.00;;;30.82;35.56
64872;BME280;51351;51.450;6.614;2023-09-07T10:52:33;101715.38;;;30.77;34.77
64872;BME280;51351;51.450;6.614;2023-09-07T10:54:59;101716.47;;;30.65;34.93
64872;BME280;51351;51.450;6.614;2023-09-07T10:57:24;101715.91;;;30.63;35.55
64872;BME280;51351;51.450;6.614;2023-09-07T10:59:50;101711.25;;;30.58;34.96
64872;BME280;51351;51.450;6.614;2023-09-07T11:02:20;101718.19;;;30.71;35.35
64872;BME280;51351;51.450;6.614;2023-09-07T11:04:45;101713.97;;;30.75;34.90
64872;BME280;51351;51.450;6.614;2023-09-07T11:07:11;101707.88;;;30.68;35.29
64872;BME280;51351;51.450;6.614;2023-09-07T11:09:43;101710.09;;;30.71;35.12
64872;BME280;51351;51.450;6.614;2023-09-07T11:12:12;101705.44;;;30.99;35.38
64872;BME280;51351;51.450;6.614;2023-09-07T11:14:38;101696.25;;;31.17;35.15
64872;BME280;51351;51.450;6.614;2023-09-07T11:17:04;101694.38;;;31.17;35.00
64872;BME280;51351;51.450;6.614;2023-09-07T11:19:33;101692.44;;;30.96;34.38
64872;BME280;51351;51.450;6.614;2023-09-07T11:21:59;101688.75;;;31.02;34.57
64872;BME280;51351;51.450;6.614;2023-09-07T11:24:24;101689.38;;;31.09;34.95
64872;BME280;51351;51.450;6.614;2023-09-07T11:26:51;101688.75;;;31.02;34.78
64872;BME280;51351;51.450;6.614;2023-09-07T11:29:17;101684.72;;;31.05;34.98
64872;BME280;51351;51.450;6.614;2023-09-07T11:31:46;101680.66;;;31.02;33.95
64872;BME280;51351;51.450;6.614;2023-09-07T11:34:13;101682.81;;;30.84;34.43
64872;BME280;51351;51.450;6.614;2023-09-07T11:36:43;101684.88;;;30.77;34.73
64872;BME280;51351;51.450;6.614;2023-09-07T11:39:09;101683.13;;;30.71;34.66
64872;BME280;51351;51.450;6.614;2023-09-07T11:41:46;101677.50;;;30.89;34.50
64872;BME280;51351;51.450;6.614;2023-09-07T11:44:12;101671.66;;;30.97;34.78
64872;BME280;51351;51.450;6.614;2023-09-07T11:46:38;101679.31;;;31.05;34.93
64872;BME280;51351;51.450;6.614;2023-09-07T11:49:03;101671.75;;;31.23;34.20
64872;BME280;51351;51.450;6.614;2023-09-07T11:51:30;101678.97;;;31.34;34.90
64872;BME280;51351;51.450;6.614;2023-09-07T11:53:55;101672.88;;;31.44;34.77
64872;BME280;51351;51.450;6.614;2023-09-07T11:56:22;101666.47;;;31.28;34.31
64872;BME280;51351;51.450;6.614;2023-09-07T11:58:48;101662.44;;;31.31;34.45
64872;BME280;51351;51.450;6.614;2023-09-07T12:01:13;101660.81;;;31.13;34.31
64872;BME280;51351;51.450;6.614;2023-09-07T12:03:45;101663.25;;;31.31;34.39
64872;BME280;51351;51.450;6.614;2023-09-07T12:06:11;101649.31;;;31.39;34.32
64872;BME280;51351;51.450;6.614;2023-09-07T12:08:36;101651.97;;;31.34;34.15
64872;BME280;51351;51.450;6.614;2023-09-07T12:11:02;101648.69;;;31.32;34.23
64872;BME280;51351;51.450;6.614;2023-09-07T12:13:27;101658.59;;;31.27;34.15
64872;BME280;51351;51.450;6.614;2023-09-07T12:15:53;101646.16;;;31.26;34.52
64872;BME280;51351;51.450;6.614;2023-09-07T12:18:18;101642.81;;;31.19;34.56
64872;BME280;51351;51.450;6.614;2023-09-07T12:20:44;101649.84;;;31.20;34.19
64872;BME280;51351;51.450;6.614;2023-09-07T12:23:12;101649.03;;;31.19;34.32
64872;BME280;51351;51.450;6.614;2023-09-07T12:25:37;101637.69;;;31.17;34.05
64872;BME280;51351;51.450;6.614;2023-09-07T12:28:03;101648.22;;;31.19;34.23
64872;BME280;51351;51.450;6.614;2023-09-07T12:30:29;101638.13;;;31.31;34.00
64872;BME280;51351;51.450;6.614;2023-09-07T12:32:54;101630.16;;;31.41;33.89
64872;BME280;51351;51.450;6.614;2023-09-07T12:35:20;101628.16;;;31.31;33.91
64872;BME280;51351;51.450;6.614;2023-09-07T12:37:46;101628.53;;;31.23;33.48
64872;BME280;51351;51.450;6.614;2023-09-07T12:40:12;101632.19;;;31.12;33.40
64872;BME280;51351;51.450;6.614;2023-09-07T12:42:41;101633.19;;;31.06;33.30
64872;BME280;51351;51.450;6.614;2023-09-07T12:45:11;101628.94;;;31.10;33.48
64872;BME280;51351;51.450;6.614;2023-09-07T12:47:37;101628.75;;;31.17;33.62
64872;BME280;51351;51.450;6.614;2023-09-07T12:50:03;101621.38;;;31.29;33.53